createdAt,value
2019-05-03T00:02:18.942Z,18.47
2019-05-03T00:04:48.444Z,18.93
2019-05-03T00:07:16.332Z,16.63
2019-05-03T00:09:44.191Z,18.40
2019-05-03T00:12:12.752Z,18.53
2019-05-03T00:14:42.336Z,17.10
2019-05-03T00:17:11.708Z,18.40
2019-05-03T00:19:39.728Z,19.10
2019-05-03T00:22:07.585Z,18.60
2019-05-03T00:24:35.453Z,18.83
2019-05-03T00:27:03.329Z,19.57
2019-05-03T00:29:32.563Z,17.80
2019-05-03T00:32:01.950Z,19.53
2019-05-03T00:34:35.181Z,20.03
2019-05-03T00:37:05.205Z,19.83
2019-05-03T00:39:41.857Z,20.70
2019-05-03T00:42:11.849Z,19.90
2019-05-03T00:44:39.524Z,21.50
2019-05-03T00:47:07.393Z,20.23
2019-05-03T00:49:35.258Z,20.30
2019-05-03T00:52:03.098Z,20.27
2019-05-03T00:54:31.669Z,20.87
2019-05-03T00:56:59.858Z,20.23
2019-05-03T00:59:27.714Z,21.17
2019-05-03T01:01:55.615Z,20.67
2019-05-03T01:04:23.465Z,20.03
2019-05-03T01:06:52.701Z,21.37
2019-05-03T01:09:23.309Z,21.70
2019-05-03T01:11:52.464Z,20.90
2019-05-03T01:14:22.440Z,21.50
2019-05-03T01:16:52.075Z,22.10
2019-05-03T01:19:19.677Z,22.50
2019-05-03T01:21:47.519Z,22.13
2019-05-03T01:24:18.124Z,21.83
2019-05-03T01:26:44.963Z,21.47
2019-05-03T01:29:12.945Z,21.83
2019-05-03T01:31:42.157Z,22.87
2019-05-03T01:34:10.134Z,22.53
2019-05-03T01:36:38.018Z,22.83
2019-05-03T01:39:06.377Z,23.53
2019-05-03T01:41:34.261Z,22.50
2019-05-03T01:44:02.331Z,22.47
2019-05-03T01:46:31.631Z,23.23
2019-05-03T01:49:06.188Z,23.20
2019-05-03T01:51:52.660Z,23.20
2019-05-03T01:54:20.620Z,23.30
2019-05-03T01:56:56.851Z,23.00
2019-05-03T01:59:18.060Z,25.70
2019-05-03T02:02:12.503Z,23.07
2019-05-03T02:04:44.698Z,22.80
2019-05-03T02:07:12.587Z,23.77
2019-05-03T02:09:41.709Z,22.87
2019-05-03T02:12:09.700Z,23.87
2019-05-03T02:14:37.532Z,23.93
2019-05-03T02:17:05.374Z,24.27
2019-05-03T02:19:33.282Z,22.67
2019-05-03T02:22:02.837Z,22.20
2019-05-03T02:24:32.590Z,22.90
2019-05-03T02:27:02.147Z,23.50
2019-05-03T02:29:32.394Z,23.67
2019-05-03T02:32:02.969Z,23.20
2019-05-03T02:34:32.446Z,23.00
2019-05-03T02:36:59.038Z,23.57
2019-05-03T02:39:26.904Z,23.60
2019-05-03T02:42:01.827Z,23.90
2019-05-03T02:44:26.644Z,22.57
2019-05-03T02:47:07.816Z,24.17
2019-05-03T02:49:39.413Z,23.57
2019-05-03T02:52:07.282Z,23.40
2019-05-03T02:54:35.305Z,23.77
2019-05-03T02:57:06.127Z,24.57
2019-05-03T02:59:34.711Z,24.53
2019-05-03T03:02:02.457Z,25.20
2019-05-03T03:04:30.321Z,22.90
2019-05-03T03:06:58.693Z,24.10
2019-05-03T03:09:26.960Z,22.40
2019-05-03T03:11:56.395Z,22.90
2019-05-03T03:14:25.629Z,23.90
2019-05-03T03:16:55.953Z,23.60
2019-05-03T03:19:26.155Z,25.00
2019-05-03T03:21:56.242Z,25.47
2019-05-03T03:24:25.996Z,23.43
2019-05-03T03:26:56.514Z,24.17
2019-05-03T03:29:25.757Z,25.60
2019-05-03T03:32:22.059Z,24.67
2019-05-03T03:35:06.090Z,24.80
2019-05-03T03:37:31.840Z,25.53
2019-05-03T03:39:59.729Z,26.00
2019-05-03T03:42:28.615Z,24.10
2019-05-03T03:44:56.901Z,24.17
2019-05-03T03:47:27.238Z,24.63
2019-05-03T03:49:55.415Z,24.80
2019-05-03T03:52:25.476Z,25.13
2019-05-03T03:54:55.436Z,23.80
2019-05-03T03:57:25.297Z,24.90
2019-05-03T03:59:55.993Z,24.87
2019-05-03T04:02:22.924Z,24.37
2019-05-03T04:04:56.176Z,24.57
2019-05-03T04:07:25.990Z,24.40
2019-05-03T04:09:56.080Z,25.33
2019-05-03T04:12:26.140Z,21.37
2019-05-03T04:15:15.998Z,25.00
2019-05-03T04:17:56.699Z,25.27
2019-05-03T04:20:25.993Z,22.13
2019-05-03T04:22:56.083Z,24.50
2019-05-03T04:25:26.203Z,24.37
2019-05-03T04:27:55.767Z,25.43
2019-05-03T04:30:25.449Z,26.03
2019-05-03T04:32:52.661Z,27.47
2019-05-03T04:35:20.547Z,26.57
2019-05-03T04:37:48.493Z,25.80
2019-05-03T04:40:16.368Z,26.20
2019-05-03T04:42:46.485Z,27.07
2019-05-03T04:45:16.244Z,26.20
2019-05-03T04:47:46.085Z,26.30
2019-05-03T04:50:13.036Z,25.47
2019-05-03T04:52:40.896Z,25.70
2019-05-03T04:55:08.934Z,26.13
2019-05-03T04:57:45.045Z,23.47
2019-05-03T05:00:11.551Z,17.13
2019-05-03T05:02:39.334Z,16.70
2019-05-03T05:05:07.327Z,17.63
2019-05-03T05:07:35.261Z,15.10
2019-05-03T05:10:05.202Z,15.30
2019-05-03T05:12:35.411Z,15.10
2019-05-03T05:15:05.096Z,15.07
2019-05-03T05:17:47.955Z,14.87
2019-05-03T05:20:28.864Z,14.83
2019-05-03T05:22:56.987Z,14.70
2019-05-03T05:25:26.692Z,15.27
2019-05-03T05:28:15.035Z,14.17
2019-05-03T05:30:44.436Z,14.70
2019-05-03T05:33:20.721Z,14.73
2019-05-03T05:35:49.290Z,14.50
2019-05-03T05:38:17.317Z,13.90
2019-05-03T05:40:45.632Z,14.40
2019-05-03T05:43:15.242Z,14.07
2019-05-03T05:45:44.907Z,15.00
2019-05-03T05:48:15.567Z,13.33
2019-05-03T05:50:44.878Z,12.87
2019-05-03T05:53:15.122Z,10.90
2019-05-03T05:56:05.018Z,10.47
2019-05-03T05:58:36.512Z,8.00
2019-05-03T06:01:25.063Z,7.67
2019-05-03T06:03:54.977Z,8.40
2019-05-03T06:06:55.366Z,7.20
2019-05-03T06:09:48.488Z,6.97
2019-05-03T06:12:38.269Z,7.17
2019-05-03T06:15:11.643Z,7.00
2019-05-03T06:17:50.681Z,7.13
2019-05-03T06:20:54.393Z,7.00
2019-05-03T06:23:34.654Z,7.60
2019-05-03T06:26:05.009Z,7.20
2019-05-03T06:28:35.270Z,8.27
2019-05-03T06:31:22.837Z,7.77
2019-05-03T06:33:52.501Z,8.00
2019-05-03T06:36:20.696Z,8.43
2019-05-03T06:38:48.646Z,8.73
2019-05-03T06:41:16.655Z,9.47
2019-05-03T06:43:48.526Z,9.03
2019-05-03T06:46:17.744Z,8.43
2019-05-03T06:48:44.429Z,9.37
2019-05-03T06:51:19.191Z,7.90
2019-05-03T06:53:47.563Z,7.33
2019-05-03T06:56:11.884Z,7.67
2019-05-03T06:58:39.949Z,8.80
2019-05-03T07:01:21.164Z,7.37
2019-05-03T07:04:16.984Z,7.17
2019-05-03T07:07:06.960Z,7.03
2019-05-03T07:09:44.429Z,6.80
2019-05-03T07:12:14.693Z,5.40
2019-05-03T07:14:42.449Z,6.30
2019-05-03T07:17:10.554Z,6.00
2019-05-03T07:19:38.481Z,5.13
2019-05-03T07:22:06.539Z,5.33
2019-05-03T07:24:40.331Z,5.63
2019-05-03T07:27:05.465Z,5.57
2019-05-03T07:29:33.572Z,4.97
2019-05-03T07:32:01.675Z,7.10
2019-05-03T07:34:29.657Z,8.30
2019-05-03T07:36:57.834Z,5.70
2019-05-03T07:39:34.809Z,7.60
2019-05-03T07:42:02.684Z,6.40
2019-05-03T07:44:30.935Z,6.63
2019-05-03T07:46:58.835Z,6.33
2019-05-03T07:49:26.854Z,5.50
2019-05-03T07:51:55.430Z,4.70
2019-05-03T07:54:24.820Z,5.47
2019-05-03T07:56:57.457Z,4.80
2019-05-03T07:59:25.446Z,4.50
2019-05-03T08:01:54.905Z,4.43
2019-05-03T08:04:22.765Z,3.57
2019-05-03T08:06:50.679Z,3.73
2019-05-03T08:09:18.631Z,3.87
2019-05-03T08:11:46.604Z,3.63
2019-05-03T08:14:17.736Z,2.80
2019-05-03T08:16:45.634Z,2.90
2019-05-03T08:19:15.238Z,3.07
2019-05-03T08:21:45.267Z,3.03
2019-05-03T08:24:14.847Z,3.17
2019-05-03T08:26:42.712Z,2.80
2019-05-03T08:29:16.292Z,2.30
2019-05-03T08:31:55.165Z,2.70
2019-05-03T08:34:47.893Z,2.10
2019-05-03T08:37:28.093Z,2.50
2019-05-03T08:39:56.241Z,2.47
2019-05-03T08:42:25.990Z,2.83
2019-05-03T08:44:55.368Z,2.83
2019-05-03T08:47:24.794Z,3.23
2019-05-03T08:49:55.010Z,2.20
2019-05-03T08:52:24.650Z,2.20
2019-05-03T08:54:52.311Z,2.20
2019-05-03T08:57:20.356Z,2.63
2019-05-03T08:59:48.416Z,3.47
2019-05-03T09:02:17.697Z,2.80
2019-05-03T09:04:46.396Z,2.17
2019-05-03T09:07:14.884Z,2.57
2019-05-03T09:09:59.889Z,2.63
2019-05-03T09:12:47.114Z,2.80
2019-05-03T09:15:15.262Z,2.30
2019-05-03T09:17:44.607Z,2.97
2019-05-03T09:20:12.675Z,3.13
2019-05-03T09:22:41.133Z,3.53
2019-05-03T09:25:09.021Z,3.33
2019-05-03T09:27:37.136Z,3.90
2019-05-03T09:30:05.345Z,4.23
2019-05-03T09:32:34.929Z,3.90
2019-05-03T09:35:03.027Z,4.37
2019-05-03T09:37:30.885Z,4.30
2019-05-03T09:39:58.825Z,4.50
2019-05-03T09:42:26.685Z,4.10
2019-05-03T09:44:55.609Z,4.27
2019-05-03T09:47:25.239Z,4.10
2019-05-03T09:49:53.276Z,4.27
2019-05-03T09:52:21.176Z,3.70
2019-05-03T09:54:51.502Z,4.50
2019-05-03T09:57:19.380Z,4.00
2019-05-03T09:59:56.144Z,4.43
2019-05-03T10:02:16.952Z,4.00
2019-05-03T10:04:44.934Z,4.03
2019-05-03T10:07:15.330Z,3.63
2019-05-03T10:09:44.991Z,3.90
2019-05-03T10:12:18.161Z,4.17
2019-05-03T10:14:46.438Z,5.40
2019-05-03T10:17:35.265Z,4.40
2019-05-03T10:20:05.530Z,4.70
2019-05-03T10:22:34.901Z,4.60
2019-05-03T10:25:04.908Z,4.60
2019-05-03T10:27:45.689Z,4.70
2019-05-03T10:30:17.755Z,4.20
2019-05-03T10:32:48.921Z,4.40
2019-05-03T10:35:17.216Z,3.47
2019-05-03T10:37:45.472Z,3.60
2019-05-03T10:40:15.113Z,3.53
2019-05-03T10:42:44.509Z,3.77
2019-05-03T10:45:12.537Z,3.93
2019-05-03T10:47:40.514Z,4.00
2019-05-03T10:50:08.497Z,4.40
2019-05-03T10:52:41.060Z,3.00
2019-05-03T10:55:08.946Z,3.40
2019-05-03T10:57:39.411Z,3.23
2019-05-03T11:00:09.439Z,3.43
2019-05-03T11:02:47.368Z,3.60
2019-05-03T11:05:15.237Z,2.63
2019-05-03T11:07:45.036Z,3.40
2019-05-03T11:10:14.571Z,3.10
2019-05-03T11:12:42.326Z,3.23
2019-05-03T11:15:10.803Z,3.20
2019-05-03T11:17:38.657Z,2.43
2019-05-03T11:20:06.706Z,3.13
2019-05-03T11:22:34.996Z,3.23
2019-05-03T11:25:05.050Z,3.43
2019-05-03T11:27:44.743Z,2.93
2019-05-03T11:30:12.875Z,4.00
2019-05-03T11:33:02.398Z,3.80
2019-05-03T11:35:38.471Z,3.87
2019-05-03T11:38:15.053Z,2.73
2019-05-03T11:40:45.385Z,2.80
2019-05-03T11:43:12.758Z,2.93
2019-05-03T11:45:40.691Z,4.00
2019-05-03T11:48:08.584Z,3.60
2019-05-03T11:50:36.546Z,3.10
2019-05-03T11:53:05.261Z,3.13
2019-05-03T11:55:35.236Z,3.20
2019-05-03T11:58:05.840Z,3.30
2019-05-03T12:00:36.356Z,2.60
2019-05-03T12:03:12.651Z,2.27
2019-05-03T12:05:42.271Z,2.30
2019-05-03T12:08:10.263Z,2.90
2019-05-03T12:10:52.506Z,2.60
2019-05-03T12:13:24.501Z,3.20
2019-05-03T12:15:57.401Z,3.27
2019-05-03T12:18:26.191Z,2.67
2019-05-03T12:20:56.696Z,3.40
2019-05-03T12:23:25.764Z,3.20
2019-05-03T12:25:54.374Z,2.90
2019-05-03T12:28:22.802Z,3.13
2019-05-03T12:30:50.719Z,3.03
2019-05-03T12:33:18.684Z,3.67
2019-05-03T12:35:46.646Z,3.07
2019-05-03T12:38:17.547Z,2.50
2019-05-03T12:40:45.688Z,3.40
2019-05-03T12:43:14.962Z,2.27
2019-05-03T12:45:43.130Z,3.40
2019-05-03T12:48:11.033Z,4.03
2019-05-03T12:50:39.208Z,3.90
2019-05-03T12:53:07.458Z,3.83
2019-05-03T12:55:35.725Z,3.27
2019-05-03T12:58:05.849Z,2.77
2019-05-03T13:01:04.965Z,2.73
2019-05-03T13:03:55.441Z,2.60
2019-05-03T13:06:25.379Z,3.03
2019-05-03T13:08:54.793Z,2.77
2019-05-03T13:11:22.715Z,3.00
2019-05-03T13:13:50.610Z,2.40
2019-05-03T13:16:20.237Z,2.83
2019-05-03T13:18:48.082Z,2.33
2019-05-03T13:21:16.096Z,2.10
2019-05-03T13:23:45.291Z,3.17
2019-05-03T13:26:14.745Z,2.10
2019-05-03T13:28:42.909Z,2.00
2019-05-03T13:31:10.862Z,2.37
2019-05-03T13:33:38.950Z,2.70
2019-05-03T13:36:06.942Z,2.80
2019-05-03T13:38:35.305Z,3.53
2019-05-03T13:41:03.627Z,3.00
2019-05-03T13:43:31.523Z,2.87
2019-05-03T13:45:59.474Z,3.43
2019-05-03T13:48:40.926Z,3.40
2019-05-03T13:50:57.197Z,2.83
2019-05-03T13:53:25.491Z,2.53
2019-05-03T13:55:55.232Z,2.57
2019-05-03T13:58:23.324Z,3.00
2019-05-03T14:00:51.359Z,2.80
2019-05-03T14:03:19.321Z,2.60
2019-05-03T14:05:47.254Z,2.70
2019-05-03T14:08:15.788Z,2.50
2019-05-03T14:10:45.609Z,2.70
2019-05-03T14:13:13.371Z,2.03
2019-05-03T14:15:41.362Z,2.40
2019-05-03T14:18:09.701Z,2.43
2019-05-03T14:20:55.055Z,2.90
2019-05-03T14:23:25.201Z,2.43
2019-05-03T14:25:52.699Z,3.40
2019-05-03T14:28:20.659Z,3.33
2019-05-03T14:30:48.616Z,3.63
2019-05-03T14:33:16.564Z,3.43
2019-05-03T14:35:45.225Z,3.97
2019-05-03T14:38:15.090Z,4.63
2019-05-03T14:40:44.835Z,4.20
2019-05-03T14:43:12.514Z,3.50
2019-05-03T14:45:40.423Z,3.50
2019-05-03T14:48:08.335Z,3.00
2019-05-03T14:50:36.232Z,3.50
2019-05-03T14:53:05.459Z,3.03
2019-05-03T14:55:56.193Z,3.03
2019-05-03T14:58:49.143Z,3.07
2019-05-03T15:01:24.836Z,3.00
2019-05-03T15:03:54.870Z,3.27
2019-05-03T15:06:24.800Z,3.80
2019-05-03T15:08:54.619Z,4.60
2019-05-03T15:11:22.105Z,3.50
2019-05-03T15:13:50.020Z,4.03
2019-05-03T15:16:17.923Z,4.30
2019-05-03T15:18:45.882Z,3.40
2019-05-03T15:21:14.589Z,2.70
2019-05-03T15:23:42.773Z,3.60
2019-05-03T15:26:14.203Z,3.50
2019-05-03T15:28:42.121Z,3.10
2019-05-03T15:31:10.115Z,3.43
2019-05-03T15:33:38.031Z,3.30
2019-05-03T15:36:05.967Z,2.80
2019-05-03T15:38:34.641Z,4.60
2019-05-03T15:41:05.195Z,3.00
2019-05-03T15:43:40.392Z,3.50
2019-05-03T15:46:27.380Z,4.50
2019-05-03T15:48:58.038Z,4.30
2019-05-03T15:51:25.955Z,3.40
2019-05-03T15:53:55.147Z,4.27
2019-05-03T15:56:25.088Z,3.70
2019-05-03T15:58:55.000Z,4.03
2019-05-03T16:01:24.656Z,4.30
2019-05-03T16:03:52.195Z,4.20
2019-05-03T16:06:20.128Z,4.00
2019-05-03T16:08:48.138Z,4.07
2019-05-03T16:11:16.103Z,4.60
2019-05-03T16:13:44.868Z,4.80
2019-05-03T16:16:14.999Z,4.13
2019-05-03T16:18:45.402Z,4.50
2019-05-03T16:21:14.611Z,4.30
2019-05-03T16:23:46.375Z,4.73
2019-05-03T16:26:14.240Z,3.60
2019-05-03T16:28:55.098Z,4.20
2019-05-03T16:31:26.295Z,4.50
2019-05-03T16:33:55.006Z,4.23
2019-05-03T16:36:23.098Z,5.17
2019-05-03T16:38:51.168Z,7.13
2019-05-03T16:41:19.103Z,6.03
2019-05-03T16:43:47.000Z,5.03
2019-05-03T16:46:14.990Z,4.40
2019-05-03T16:48:44.633Z,4.10
2019-05-03T16:51:15.044Z,5.03
2019-05-03T16:53:44.471Z,4.70
2019-05-03T16:56:12.610Z,5.03
2019-05-03T16:58:40.374Z,3.87
2019-05-03T17:01:08.340Z,3.73
2019-05-03T17:03:45.764Z,3.80
2019-05-03T17:06:50.950Z,3.60
2019-05-03T17:09:36.576Z,4.00
2019-05-03T17:12:22.523Z,4.10
2019-05-03T17:14:50.536Z,3.90
2019-05-03T17:17:45.420Z,3.67
2019-05-03T17:20:14.470Z,4.10
2019-05-03T17:22:44.938Z,3.73
2019-05-03T17:25:12.654Z,4.40
2019-05-03T17:27:40.583Z,4.40
2019-05-03T17:30:08.512Z,4.20
2019-05-03T17:32:36.551Z,3.13
2019-05-03T17:35:05.322Z,2.73
2019-05-03T17:37:34.703Z,3.00
2019-05-03T17:40:20.958Z,3.00
2019-05-03T17:42:59.081Z,3.10
2019-05-03T17:45:31.660Z,5.13
2019-05-03T17:47:59.600Z,3.10
2019-05-03T17:50:27.462Z,2.63
2019-05-03T17:53:17.550Z,2.00
2019-05-03T17:56:04.716Z,2.00
2019-05-03T17:58:40.888Z,2.57
2019-05-03T18:01:44.572Z,2.37
2019-05-03T18:04:31.756Z,3.00
2019-05-03T18:07:09.477Z,3.37
2019-05-03T18:09:38.016Z,3.27
2019-05-03T18:12:07.398Z,2.97
2019-05-03T18:14:35.272Z,2.50
2019-05-03T18:17:05.703Z,3.13
2019-05-03T18:19:34.376Z,2.90
2019-05-03T18:22:05.037Z,2.40
2019-05-03T18:24:35.342Z,2.30
2019-05-03T18:27:03.358Z,2.40
2019-05-03T18:29:31.342Z,2.73
2019-05-03T18:32:01.856Z,2.17
2019-05-03T18:34:32.583Z,2.70
2019-05-03T18:37:04.768Z,2.37
2019-05-03T18:39:34.722Z,2.43
2019-05-03T18:42:04.939Z,2.87
2019-05-03T18:44:41.170Z,2.33
2019-05-03T18:47:14.697Z,2.73
2019-05-03T18:49:45.917Z,2.70
2019-05-03T18:52:15.627Z,3.07
2019-05-03T18:54:44.463Z,3.10
2019-05-03T18:57:12.682Z,3.20
2019-05-03T18:59:40.589Z,3.00
2019-05-03T19:02:08.841Z,3.20
2019-05-03T19:04:50.721Z,3.47
2019-05-03T19:07:45.231Z,3.30
2019-05-03T19:10:32.860Z,4.37
2019-05-03T19:13:11.490Z,3.80
2019-05-03T19:15:39.545Z,4.57
2019-05-03T19:18:25.354Z,4.60
2019-05-03T19:20:54.989Z,3.90
2019-05-03T19:23:24.977Z,4.37
2019-05-03T19:25:55.147Z,4.77
2019-05-03T19:28:24.937Z,4.80
2019-05-03T19:30:54.954Z,5.57
2019-05-03T19:33:37.692Z,4.43
2019-05-03T19:36:06.620Z,6.20
2019-05-03T19:38:35.169Z,4.67
2019-05-03T19:41:05.050Z,4.07
2019-05-03T19:43:35.325Z,4.27
2019-05-03T19:46:04.620Z,5.17
2019-05-03T19:48:32.396Z,5.20
2019-05-03T19:51:23.661Z,4.80
2019-05-03T19:53:49.721Z,4.30
2019-05-03T19:56:18.298Z,4.50
2019-05-03T19:58:46.774Z,4.63
2019-05-03T20:01:34.444Z,4.67
2019-05-03T20:04:10.870Z,3.80
2019-05-03T20:06:52.181Z,4.03
2019-05-03T20:09:20.988Z,3.60
2019-05-03T20:11:51.971Z,4.23
2019-05-03T20:14:19.965Z,4.10
2019-05-03T20:16:47.833Z,4.20
2019-05-03T20:19:20.896Z,4.40
2019-05-03T20:21:45.311Z,4.80
2019-05-03T20:24:14.847Z,4.30
2019-05-03T20:26:44.961Z,5.27
2019-05-03T20:29:14.693Z,5.20
2019-05-03T20:31:44.985Z,5.20
2019-05-03T20:34:15.903Z,5.17
2019-05-03T20:36:46.024Z,4.83
2019-05-03T20:39:14.801Z,6.47
2019-05-03T20:41:42.924Z,5.40
2019-05-03T20:44:39.057Z,6.20
2019-05-03T20:47:25.976Z,5.30
2019-05-03T20:50:11.539Z,6.40
2019-05-03T20:52:44.633Z,6.00
2019-05-03T20:55:12.408Z,5.77
2019-05-03T20:57:41.785Z,6.40
2019-05-03T21:00:11.408Z,5.80
2019-05-03T21:02:50.682Z,5.80
2019-05-03T21:05:09.221Z,4.73
2019-05-03T21:07:37.244Z,4.47
2019-05-03T21:10:06.071Z,4.70
2019-05-03T21:12:34.679Z,5.40
2019-05-03T21:15:06.086Z,4.80
2019-05-03T21:17:52.176Z,5.00
2019-05-03T21:20:45.227Z,4.60
2019-05-03T21:23:14.766Z,5.00
2019-05-03T21:26:03.546Z,4.53
2019-05-03T21:28:17.882Z,4.30
2019-05-03T21:30:45.749Z,4.60
2019-05-03T21:33:15.638Z,4.30
2019-05-03T21:35:45.117Z,4.50
2019-05-03T21:38:13.387Z,4.90
2019-05-03T21:40:41.397Z,4.50
2019-05-03T21:43:09.251Z,5.00
2019-05-03T21:45:46.112Z,5.00
2019-05-03T21:48:20.231Z,5.10
2019-05-03T21:50:47.788Z,5.07
2019-05-03T21:53:15.664Z,4.30
2019-05-03T21:55:45.260Z,4.70
2019-05-03T21:58:16.046Z,4.77
2019-05-03T22:00:50.969Z,4.03
2019-05-03T22:03:18.844Z,4.27
2019-05-03T22:05:55.144Z,4.30
2019-05-03T22:08:16.515Z,4.40
2019-05-03T22:10:45.058Z,4.07
2019-05-03T22:13:15.281Z,4.37
2019-05-03T22:15:47.633Z,3.60
2019-05-03T22:18:35.065Z,4.50
2019-05-03T22:21:21.088Z,3.70
2019-05-03T22:24:06.770Z,3.80
2019-05-03T22:26:52.327Z,3.77
2019-05-03T22:29:20.199Z,4.03
2019-05-03T22:31:48.132Z,3.43
2019-05-03T22:34:16.046Z,3.63
2019-05-03T22:36:44.403Z,3.63
2019-05-03T22:39:12.748Z,3.40
2019-05-03T22:41:40.675Z,3.80
2019-05-03T22:44:08.592Z,4.00
2019-05-03T22:46:36.846Z,4.10
2019-05-03T22:49:05.026Z,3.97
2019-05-03T22:51:34.554Z,3.90
2019-05-03T22:54:04.590Z,3.27
2019-05-03T22:56:32.138Z,3.93
2019-05-03T22:59:00.911Z,4.47
2019-05-03T23:01:29.010Z,4.30
2019-05-03T23:03:57.798Z,4.03
2019-05-03T23:06:25.711Z,3.90
2019-05-03T23:08:55.936Z,3.80
2019-05-03T23:11:24.553Z,4.20
2019-05-03T23:14:01.902Z,4.20
2019-05-03T23:16:30.850Z,3.53
2019-05-03T23:18:58.884Z,3.97
2019-05-03T23:21:28.727Z,3.90
2019-05-03T23:23:56.660Z,4.30
2019-05-03T23:26:25.443Z,3.70
2019-05-03T23:28:55.133Z,4.37
2019-05-03T23:31:25.002Z,4.03
2019-05-03T23:33:54.472Z,3.90
2019-05-03T23:36:32.700Z,4.20
2019-05-03T23:38:54.470Z,3.50
2019-05-03T23:41:21.923Z,4.00
2019-05-03T23:43:49.851Z,3.93
2019-05-03T23:46:19.976Z,3.67
2019-05-03T23:48:47.943Z,4.10
2019-05-03T23:51:35.084Z,4.03
2019-05-03T23:54:05.411Z,4.03
2019-05-03T23:56:35.019Z,4.20
2019-05-03T23:59:05.572Z,4.70
